sensor_id;sensor_type;location;lat;lon;timestamp;P1;durP1;ratioP1;P2;durP2;ratioP2
8254;SDS011;4167;48.162;11.542;2022-10-30T00:00:13;93.37;;;53.30;;
8254;SDS011;4167;48.162;11.542;2022-10-30T00:02:40;83.37;;;51.10;;
8254;SDS011;4167;48.162;11.542;2022-10-30T00:05:06;94.13;;;53.00;;
8254;SDS011;4167;48.162;11.542;2022-10-30T00:07:33;96.17;;;52.37;;
8254;SDS011;4167;48.162;11.542;2022-10-30T00:10:00;92.17;;;51.43;;
8254;SDS011;4167;48.162;11.542;2022-10-30T00:12:28;108.03;;;52.97;;
8254;SDS011;4167;48.162;11.542;2022-10-30T00:14:55;85.60;;;51.17;;
8254;SDS011;4167;48.162;11.542;2022-10-30T00:17:21;85.87;;;50.83;;
8254;SDS011;4167;48.162;11.542;2022-10-30T00:19:48;97.93;;;52.00;;
8254;SDS011;4167;48.162;11.542;2022-10-30T00:22:14;134.50;;;55.80;;
8254;SDS011;4167;48.162;11.542;2022-10-30T00:24:41;90.43;;;51.57;;
8254;SDS011;4167;48.162;11.542;2022-10-30T00:27:08;84.87;;;50.97;;
8254;SDS011;4167;48.162;11.542;2022-10-30T00:29:36;108.97;;;54.03;;
8254;SDS011;4167;48.162;11.542;2022-10-30T00:32:02;86.43;;;50.67;;
8254;SDS011;4167;48.162;11.542;2022-10-30T00:34:29;105.63;;;52.43;;
8254;SDS011;4167;48.162;11.542;2022-10-30T00:36:56;90.40;;;51.53;;
8254;SDS011;4167;48.162;11.542;2022-10-30T00:39:22;92.80;;;51.97;;
8254;SDS011;4167;48.162;11.542;2022-10-30T00:41:49;90.07;;;51.30;;
8254;SDS011;4167;48.162;11.542;2022-10-30T00:44:31;88.70;;;51.10;;
8254;SDS011;4167;48.162;11.542;2022-10-30T00:47:11;94.03;;;51.47;;
8254;SDS011;4167;48.162;11.542;2022-10-30T00:49:43;75.87;;;49.57;;
8254;SDS011;4167;48.162;11.542;2022-10-30T00:52:16;84.63;;;50.40;;
8254;SDS011;4167;48.162;11.542;2022-10-30T00:54:43;86.57;;;50.93;;
8254;SDS011;4167;48.162;11.542;2022-10-30T00:57:09;84.03;;;50.43;;
8254;SDS011;4167;48.162;11.542;2022-10-30T00:59:37;111.40;;;53.43;;
8254;SDS011;4167;48.162;11.542;2022-10-30T01:02:04;78.00;;;49.27;;
8254;SDS011;4167;48.162;11.542;2022-10-30T01:04:32;89.47;;;51.07;;
8254;SDS011;4167;48.162;11.542;2022-10-30T01:07:04;77.83;;;49.80;;
8254;SDS011;4167;48.162;11.542;2022-10-30T01:09:32;80.77;;;49.23;;
8254;SDS011;4167;48.162;11.542;2022-10-30T01:11:59;76.73;;;49.57;;
8254;SDS011;4167;48.162;11.542;2022-10-30T01:14:25;109.57;;;52.20;;
8254;SDS011;4167;48.162;11.542;2022-10-30T01:19:56;94.87;;;50.80;;
8254;SDS011;4167;48.162;11.542;2022-10-30T01:22:29;78.60;;;49.17;;
8254;SDS011;4167;48.162;11.542;2022-10-30T01:25:07;102.00;;;51.70;;
8254;SDS011;4167;48.162;11.542;2022-10-30T01:27:42;99.13;;;50.90;;
8254;SDS011;4167;48.162;11.542;2022-10-30T01:30:17;132.83;;;55.83;;
8254;SDS011;4167;48.162;11.542;2022-10-30T01:32:55;77.40;;;49.30;;
8254;SDS011;4167;48.162;11.542;2022-10-30T01:35:31;92.93;;;50.20;;
8254;SDS011;4167;48.162;11.542;2022-10-30T01:38:01;78.33;;;49.53;;
8254;SDS011;4167;48.162;11.542;2022-10-30T01:40:32;100.33;;;51.53;;
8254;SDS011;4167;48.162;11.542;2022-10-30T01:42:58;72.10;;;48.47;;
8254;SDS011;4167;48.162;11.542;2022-10-30T01:45:29;79.37;;;49.67;;
8254;SDS011;4167;48.162;11.542;2022-10-30T01:51:06;65.37;;;47.93;;
8254;SDS011;4167;48.162;11.542;2022-10-30T01:53:39;113.20;;;52.73;;
8254;SDS011;4167;48.162;11.542;2022-10-30T01:56:14;83.43;;;50.37;;
8254;SDS011;4167;48.162;11.542;2022-10-30T01:58:47;95.23;;;51.20;;
8254;SDS011;4167;48.162;11.542;2022-10-30T02:01:19;88.80;;;51.43;;
8254;SDS011;4167;48.162;11.542;2022-10-30T02:03:48;103.37;;;51.90;;
8254;SDS011;4167;48.162;11.542;2022-10-30T02:06:15;74.10;;;48.83;;
8254;SDS011;4167;48.162;11.542;2022-10-30T02:08:42;107.93;;;52.20;;
8254;SDS011;4167;48.162;11.542;2022-10-30T02:11:08;84.17;;;50.73;;
8254;SDS011;4167;48.162;11.542;2022-10-30T02:13:36;80.13;;;50.17;;
8254;SDS011;4167;48.162;11.542;2022-10-30T02:16:03;75.20;;;49.40;;
8254;SDS011;4167;48.162;11.542;2022-10-30T02:18:30;80.83;;;50.67;;
8254;SDS011;4167;48.162;11.542;2022-10-30T02:20:58;79.83;;;50.07;;
8254;SDS011;4167;48.162;11.542;2022-10-30T02:23:25;136.37;;;55.90;;
8254;SDS011;4167;48.162;11.542;2022-10-30T02:25:51;84.07;;;50.10;;
8254;SDS011;4167;48.162;11.542;2022-10-30T02:28:18;84.77;;;50.13;;
8254;SDS011;4167;48.162;11.542;2022-10-30T02:30:44;80.43;;;49.77;;
8254;SDS011;4167;48.162;11.542;2022-10-30T02:33:11;93.10;;;51.40;;
8254;SDS011;4167;48.162;11.542;2022-10-30T02:35:37;112.50;;;53.50;;
8254;SDS011;4167;48.162;11.542;2022-10-30T02:38:05;90.57;;;50.23;;
8254;SDS011;4167;48.162;11.542;2022-10-30T02:40:32;84.90;;;50.60;;
8254;SDS011;4167;48.162;11.542;2022-10-30T02:42:58;79.87;;;49.80;;
8254;SDS011;4167;48.162;11.542;2022-10-30T02:45:25;74.47;;;48.90;;
8254;SDS011;4167;48.162;11.542;2022-10-30T02:47:52;81.07;;;49.50;;
8254;SDS011;4167;48.162;11.542;2022-10-30T02:50:18;90.73;;;51.70;;
8254;SDS011;4167;48.162;11.542;2022-10-30T02:52:45;82.83;;;50.27;;
8254;SDS011;4167;48.162;11.542;2022-10-30T02:55:13;87.00;;;51.33;;
8254;SDS011;4167;48.162;11.542;2022-10-30T02:57:39;83.60;;;50.30;;
8254;SDS011;4167;48.162;11.542;2022-10-30T03:00:06;78.03;;;50.00;;
8254;SDS011;4167;48.162;11.542;2022-10-30T03:02:34;70.90;;;49.50;;
8254;SDS011;4167;48.162;11.542;2022-10-30T03:05:00;71.73;;;49.23;;
8254;SDS011;4167;48.162;11.542;2022-10-30T03:07:27;90.57;;;50.93;;
8254;SDS011;4167;48.162;11.542;2022-10-30T03:09:53;65.30;;;49.30;;
8254;SDS011;4167;48.162;11.542;2022-10-30T03:12:21;91.73;;;51.40;;
8254;SDS011;4167;48.162;11.542;2022-10-30T03:14:48;82.03;;;50.00;;
8254;SDS011;4167;48.162;11.542;2022-10-30T03:17:15;84.50;;;50.27;;
8254;SDS011;4167;48.162;11.542;2022-10-30T03:19:41;75.97;;;49.63;;
8254;SDS011;4167;48.162;11.542;2022-10-30T03:22:08;77.60;;;49.47;;
8254;SDS011;4167;48.162;11.542;2022-10-30T03:24:34;78.83;;;50.30;;
8254;SDS011;4167;48.162;11.542;2022-10-30T03:27:02;81.60;;;49.63;;
8254;SDS011;4167;48.162;11.542;2022-10-30T03:29:30;70.20;;;48.80;;
8254;SDS011;4167;48.162;11.542;2022-10-30T03:31:56;82.13;;;49.63;;
8254;SDS011;4167;48.162;11.542;2022-10-30T03:34:23;83.40;;;50.23;;
8254;SDS011;4167;48.162;11.542;2022-10-30T03:36:50;95.37;;;51.43;;
8254;SDS011;4167;48.162;11.542;2022-10-30T03:39:16;80.20;;;49.50;;
8254;SDS011;4167;48.162;11.542;2022-10-30T03:41:43;93.33;;;51.47;;
8254;SDS011;4167;48.162;11.542;2022-10-30T03:44:09;77.00;;;49.37;;
8254;SDS011;4167;48.162;11.542;2022-10-30T03:46:38;83.20;;;50.40;;
8254;SDS011;4167;48.162;11.542;2022-10-30T03:49:04;80.07;;;49.40;;
8254;SDS011;4167;48.162;11.542;2022-10-30T03:51:31;80.07;;;49.40;;
8254;SDS011;4167;48.162;11.542;2022-10-30T03:53:57;85.90;;;50.20;;
8254;SDS011;4167;48.162;11.542;2022-10-30T03:56:24;78.20;;;49.03;;
8254;SDS011;4167;48.162;11.542;2022-10-30T03:58:51;84.37;;;49.57;;
8254;SDS011;4167;48.162;11.542;2022-10-30T04:01:17;85.33;;;50.57;;
8254;SDS011;4167;48.162;11.542;2022-10-30T04:03:45;90.57;;;50.23;;
8254;SDS011;4167;48.162;11.542;2022-10-30T04:06:12;95.40;;;51.60;;
8254;SDS011;4167;48.162;11.542;2022-10-30T04:08:38;113.77;;;52.60;;
8254;SDS011;4167;48.162;11.542;2022-10-30T04:11:05;82.47;;;49.43;;
8254;SDS011;4167;48.162;11.542;2022-10-30T04:13:32;84.27;;;50.03;;
8254;SDS011;4167;48.162;11.542;2022-10-30T04:15:58;78.43;;;49.83;;
8254;SDS011;4167;48.162;11.542;2022-10-30T04:18:25;89.13;;;50.17;;
8254;SDS011;4167;48.162;11.542;2022-10-30T04:20:53;80.83;;;49.73;;
8254;SDS011;4167;48.162;11.542;2022-10-30T04:23:20;85.53;;;49.97;;
8254;SDS011;4167;48.162;11.542;2022-10-30T04:25:47;82.67;;;49.47;;
8254;SDS011;4167;48.162;11.542;2022-10-30T04:28:14;82.27;;;49.77;;
8254;SDS011;4167;48.162;11.542;2022-10-30T04:30:40;75.43;;;49.10;;
8254;SDS011;4167;48.162;11.542;2022-10-30T04:33:09;94.37;;;50.27;;
8254;SDS011;4167;48.162;11.542;2022-10-30T04:35:37;99.50;;;51.33;;
8254;SDS011;4167;48.162;11.542;2022-10-30T04:38:05;96.77;;;50.97;;
8254;SDS011;4167;48.162;11.542;2022-10-30T04:40:33;79.37;;;49.07;;
8254;SDS011;4167;48.162;11.542;2022-10-30T04:43:01;81.63;;;49.37;;
8254;SDS011;4167;48.162;11.542;2022-10-30T04:45:28;78.67;;;49.23;;
8254;SDS011;4167;48.162;11.542;2022-10-30T04:47:58;82.93;;;50.03;;
8254;SDS011;4167;48.162;11.542;2022-10-30T04:50:25;75.63;;;49.03;;
8254;SDS011;4167;48.162;11.542;2022-10-30T04:52:57;85.20;;;50.13;;
8254;SDS011;4167;48.162;11.542;2022-10-30T04:55:25;87.67;;;50.47;;
8254;SDS011;4167;48.162;11.542;2022-10-30T04:57:54;85.13;;;49.93;;
8254;SDS011;4167;48.162;11.542;2022-10-30T05:00:21;99.90;;;51.33;;
8254;SDS011;4167;48.162;11.542;2022-10-30T05:02:47;83.67;;;50.30;;
8254;SDS011;4167;48.162;11.542;2022-10-30T05:05:14;85.50;;;50.90;;
8254;SDS011;4167;48.162;11.542;2022-10-30T05:07:41;81.13;;;48.97;;
8254;SDS011;4167;48.162;11.542;2022-10-30T05:10:09;135.13;;;55.33;;
8254;SDS011;4167;48.162;11.542;2022-10-30T05:12:39;87.10;;;49.63;;
8254;SDS011;4167;48.162;11.542;2022-10-30T05:15:07;87.60;;;50.50;;
8254;SDS011;4167;48.162;11.542;2022-10-30T05:17:34;83.37;;;49.03;;
8254;SDS011;4167;48.162;11.542;2022-10-30T05:20:00;79.63;;;49.13;;
8254;SDS011;4167;48.162;11.542;2022-10-30T05:22:27;85.50;;;49.10;;
8254;SDS011;4167;48.162;11.542;2022-10-30T05:24:54;80.83;;;49.17;;
8254;SDS011;4167;48.162;11.542;2022-10-30T05:27:20;117.87;;;52.50;;
8254;SDS011;4167;48.162;11.542;2022-10-30T05:29:48;87.60;;;48.57;;
8254;SDS011;4167;48.162;11.542;2022-10-30T05:32:15;91.00;;;49.90;;
8254;SDS011;4167;48.162;11.542;2022-10-30T05:34:41;88.77;;;49.30;;
8254;SDS011;4167;48.162;11.542;2022-10-30T05:37:08;79.13;;;49.27;;
8254;SDS011;4167;48.162;11.542;2022-10-30T05:39:34;81.13;;;48.83;;
8254;SDS011;4167;48.162;11.542;2022-10-30T05:42:01;70.93;;;47.70;;
8254;SDS011;4167;48.162;11.542;2022-10-30T05:44:28;59.37;;;46.70;;
8254;SDS011;4167;48.162;11.542;2022-10-30T05:46:56;127.80;;;53.43;;
8254;SDS011;4167;48.162;11.542;2022-10-30T05:49:22;84.47;;;49.53;;
8254;SDS011;4167;48.162;11.542;2022-10-30T05:51:49;65.67;;;47.83;;
8254;SDS011;4167;48.162;11.542;2022-10-30T05:54:15;92.70;;;50.03;;
8254;SDS011;4167;48.162;11.542;2022-10-30T05:56:42;75.30;;;47.83;;
8254;SDS011;4167;48.162;11.542;2022-10-30T05:59:08;81.70;;;48.80;;
8254;SDS011;4167;48.162;11.542;2022-10-30T06:01:35;74.77;;;48.27;;
8254;SDS011;4167;48.162;11.542;2022-10-30T06:04:03;72.17;;;47.83;;
8254;SDS011;4167;48.162;11.542;2022-10-30T06:06:31;73.27;;;47.47;;
8254;SDS011;4167;48.162;11.542;2022-10-30T06:08:58;73.10;;;47.93;;
8254;SDS011;4167;48.162;11.542;2022-10-30T06:11:24;98.33;;;50.37;;
8254;SDS011;4167;48.162;11.542;2022-10-30T06:13:51;81.00;;;48.57;;
8254;SDS011;4167;48.162;11.542;2022-10-30T06:16:17;79.47;;;48.53;;
8254;SDS011;4167;48.162;11.542;2022-10-30T06:18:44;69.10;;;47.53;;
8254;SDS011;4167;48.162;11.542;2022-10-30T06:21:12;80.73;;;48.80;;
8254;SDS011;4167;48.162;11.542;2022-10-30T06:23:39;70.93;;;47.93;;
8254;SDS011;4167;48.162;11.542;2022-10-30T06:26:06;171.53;;;57.67;;
8254;SDS011;4167;48.162;11.542;2022-10-30T06:28:32;78.10;;;48.63;;
8254;SDS011;4167;48.162;11.542;2022-10-30T06:30:59;78.53;;;48.37;;
8254;SDS011;4167;48.162;11.542;2022-10-30T06:33:25;66.50;;;48.07;;
8254;SDS011;4167;48.162;11.542;2022-10-30T06:35:52;80.37;;;49.67;;
8254;SDS011;4167;48.162;11.542;2022-10-30T06:38:20;110.43;;;53.40;;
8254;SDS011;4167;48.162;11.542;2022-10-30T06:40:47;96.07;;;51.73;;
8254;SDS011;4167;48.162;11.542;2022-10-30T06:43:14;81.40;;;50.33;;
8254;SDS011;4167;48.162;11.542;2022-10-30T06:45:40;140.13;;;57.13;;
8254;SDS011;4167;48.162;11.542;2022-10-30T06:48:07;85.33;;;50.70;;
8254;SDS011;4167;48.162;11.542;2022-10-30T06:50:34;93.27;;;52.10;;
8254;SDS011;4167;48.162;11.542;2022-10-30T06:53:00;170.43;;;60.77;;
8254;SDS011;4167;48.162;11.542;2022-10-30T06:55:29;73.80;;;51.27;;
8254;SDS011;4167;48.162;11.542;2022-10-30T06:57:55;83.47;;;52.23;;
8254;SDS011;4167;48.162;11.542;2022-10-30T07:00:22;88.20;;;53.27;;
8254;SDS011;4167;48.162;11.542;2022-10-30T07:02:55;86.77;;;52.93;;
8254;SDS011;4167;48.162;11.542;2022-10-30T07:05:23;85.23;;;52.80;;
8254;SDS011;4167;48.162;11.542;2022-10-30T07:07:49;120.57;;;55.53;;
8254;SDS011;4167;48.162;11.542;2022-10-30T07:10:16;92.40;;;54.10;;
8254;SDS011;4167;48.162;11.542;2022-10-30T07:12:50;91.73;;;53.93;;
8254;SDS011;4167;48.162;11.542;2022-10-30T07:15:17;87.93;;;53.90;;
8254;SDS011;4167;48.162;11.542;2022-10-30T07:17:50;105.07;;;54.97;;
8254;SDS011;4167;48.162;11.542;2022-10-30T07:20:17;103.30;;;55.97;;
8254;SDS011;4167;48.162;11.542;2022-10-30T07:22:44;94.47;;;54.43;;
8254;SDS011;4167;48.162;11.542;2022-10-30T07:25:10;121.30;;;57.87;;
8254;SDS011;4167;48.162;11.542;2022-10-30T07:27:40;91.20;;;54.13;;
8254;SDS011;4167;48.162;11.542;2022-10-30T07:30:09;96.77;;;56.20;;
8254;SDS011;4167;48.162;11.542;2022-10-30T07:32:37;84.17;;;53.50;;
8254;SDS011;4167;48.162;11.542;2022-10-30T07:35:04;92.60;;;55.63;;
8254;SDS011;4167;48.162;11.542;2022-10-30T07:37:31;122.73;;;56.77;;
8254;SDS011;4167;48.162;11.542;2022-10-30T07:39:58;113.17;;;55.23;;
8254;SDS011;4167;48.162;11.542;2022-10-30T07:42:24;90.43;;;54.00;;
8254;SDS011;4167;48.162;11.542;2022-10-30T07:44:51;110.20;;;54.90;;
8254;SDS011;4167;48.162;11.542;2022-10-30T07:47:19;85.23;;;53.23;;
8254;SDS011;4167;48.162;11.542;2022-10-30T07:49:45;92.13;;;54.07;;
8254;SDS011;4167;48.162;11.542;2022-10-30T07:52:12;99.50;;;54.17;;
8254;SDS011;4167;48.162;11.542;2022-10-30T07:54:38;85.80;;;53.47;;
8254;SDS011;4167;48.162;11.542;2022-10-30T07:57:05;121.27;;;56.70;;
8254;SDS011;4167;48.162;11.542;2022-10-30T07:59:32;115.60;;;56.17;;
8254;SDS011;4167;48.162;11.542;2022-10-30T08:01:58;90.87;;;53.47;;
8254;SDS011;4167;48.162;11.542;2022-10-30T08:04:27;96.20;;;53.33;;
8254;SDS011;4167;48.162;11.542;2022-10-30T08:06:53;101.80;;;53.07;;
8254;SDS011;4167;48.162;11.542;2022-10-30T08:09:20;105.70;;;54.60;;
8254;SDS011;4167;48.162;11.542;2022-10-30T08:11:46;134.63;;;56.80;;
8254;SDS011;4167;48.162;11.542;2022-10-30T08:14:13;103.57;;;53.73;;
8254;SDS011;4167;48.162;11.542;2022-10-30T08:16:40;126.63;;;55.37;;
8254;SDS011;4167;48.162;11.542;2022-10-30T08:19:06;94.77;;;53.40;;
8254;SDS011;4167;48.162;11.542;2022-10-30T08:21:34;89.33;;;51.87;;
8254;SDS011;4167;48.162;11.542;2022-10-30T08:24:01;101.77;;;53.57;;
8254;SDS011;4167;48.162;11.542;2022-10-30T08:26:28;112.73;;;54.50;;
8254;SDS011;4167;48.162;11.542;2022-10-30T08:28:54;94.43;;;53.07;;
8254;SDS011;4167;48.162;11.542;2022-10-30T08:31:21;100.47;;;54.50;;
8254;SDS011;4167;48.162;11.542;2022-10-30T08:33:47;88.53;;;52.67;;
8254;SDS011;4167;48.162;11.542;2022-10-30T08:36:14;112.60;;;54.00;;
8254;SDS011;4167;48.162;11.542;2022-10-30T08:38:42;114.83;;;55.30;;
8254;SDS011;4167;48.162;11.542;2022-10-30T08:41:09;86.23;;;51.57;;
8254;SDS011;4167;48.162;11.542;2022-10-30T08:43:35;97.27;;;53.67;;
8254;SDS011;4167;48.162;11.542;2022-10-30T08:46:02;103.70;;;53.73;;
8254;SDS011;4167;48.162;11.542;2022-10-30T08:48:29;103.43;;;53.03;;
8254;SDS011;4167;48.162;11.542;2022-10-30T08:50:56;96.47;;;53.47;;
8254;SDS011;4167;48.162;11.542;2022-10-30T08:53:23;91.77;;;52.90;;
8254;SDS011;4167;48.162;11.542;2022-10-30T08:55:51;120.43;;;55.00;;
8254;SDS011;4167;48.162;11.542;2022-10-30T08:58:18;94.37;;;53.10;;
8254;SDS011;4167;48.162;11.542;2022-10-30T09:00:44;107.20;;;53.80;;
8254;SDS011;4167;48.162;11.542;2022-10-30T09:03:11;104.33;;;53.53;;
8254;SDS011;4167;48.162;11.542;2022-10-30T09:05:38;99.67;;;53.60;;
8254;SDS011;4167;48.162;11.542;2022-10-30T09:08:04;84.90;;;52.07;;
8254;SDS011;4167;48.162;11.542;2022-10-30T09:10:31;93.40;;;53.33;;
8254;SDS011;4167;48.162;11.542;2022-10-30T09:12:59;98.87;;;53.93;;
8254;SDS011;4167;48.162;11.542;2022-10-30T09:15:27;91.87;;;53.47;;
8254;SDS011;4167;48.162;11.542;2022-10-30T09:17:54;99.50;;;53.27;;
8254;SDS011;4167;48.162;11.542;2022-10-30T09:20:22;101.60;;;54.47;;
8254;SDS011;4167;48.162;11.542;2022-10-30T09:22:48;114.20;;;54.97;;
8254;SDS011;4167;48.162;11.542;2022-10-30T09:25:15;98.80;;;54.17;;
8254;SDS011;4167;48.162;11.542;2022-10-30T09:27:41;103.93;;;54.33;;
8254;SDS011;4167;48.162;11.542;2022-10-30T09:30:10;107.30;;;55.77;;
8254;SDS011;4167;48.162;11.542;2022-10-30T09:32:37;85.57;;;53.37;;
8254;SDS011;4167;48.162;11.542;2022-10-30T09:35:04;75.77;;;51.73;;
8254;SDS011;4167;48.162;11.542;2022-10-30T09:37:32;89.67;;;53.33;;
8254;SDS011;4167;48.162;11.542;2022-10-30T09:39:59;90.47;;;52.20;;
8254;SDS011;4167;48.162;11.542;2022-10-30T09:42:38;85.77;;;53.00;;
8254;SDS011;4167;48.162;11.542;2022-10-30T09:45:17;88.87;;;53.13;;
8254;SDS011;4167;48.162;11.542;2022-10-30T09:47:59;97.23;;;53.33;;
8254;SDS011;4167;48.162;11.542;2022-10-30T09:50:33;90.50;;;52.87;;
8254;SDS011;4167;48.162;11.542;2022-10-30T09:53:06;88.87;;;53.27;;
8254;SDS011;4167;48.162;11.542;2022-10-30T09:55:40;116.33;;;55.03;;
8254;SDS011;4167;48.162;11.542;2022-10-30T09:58:16;100.50;;;54.10;;
8254;SDS011;4167;48.162;11.542;2022-10-30T10:00:49;95.17;;;52.83;;
8254;SDS011;4167;48.162;11.542;2022-10-30T10:03:32;111.33;;;54.90;;
8254;SDS011;4167;48.162;11.542;2022-10-30T10:06:16;121.60;;;55.70;;
8254;SDS011;4167;48.162;11.542;2022-10-30T10:08:45;97.03;;;53.37;;
8254;SDS011;4167;48.162;11.542;2022-10-30T10:11:14;92.77;;;53.37;;
8254;SDS011;4167;48.162;11.542;2022-10-30T10:13:43;108.97;;;54.40;;
8254;SDS011;4167;48.162;11.542;2022-10-30T10:16:15;87.47;;;53.03;;
8254;SDS011;4167;48.162;11.542;2022-10-30T10:18:45;114.97;;;55.13;;
8254;SDS011;4167;48.162;11.542;2022-10-30T10:21:14;98.60;;;54.10;;
8254;SDS011;4167;48.162;11.542;2022-10-30T10:23:47;102.77;;;54.33;;
8254;SDS011;4167;48.162;11.542;2022-10-30T10:26:20;91.87;;;53.50;;
8254;SDS011;4167;48.162;11.542;2022-10-30T10:28:54;100.27;;;54.77;;
8254;SDS011;4167;48.162;11.542;2022-10-30T10:31:45;95.97;;;53.40;;
8254;SDS011;4167;48.162;11.542;2022-10-30T10:34:29;91.60;;;54.07;;
8254;SDS011;4167;48.162;11.542;2022-10-30T10:37:02;90.53;;;52.57;;
8254;SDS011;4167;48.162;11.542;2022-10-30T10:39:39;101.13;;;53.90;;
8254;SDS011;4167;48.162;11.542;2022-10-30T10:42:16;105.67;;;54.63;;
8254;SDS011;4167;48.162;11.542;2022-10-30T10:44:48;108.83;;;54.77;;
8254;SDS011;4167;48.162;11.542;2022-10-30T10:47:38;89.30;;;53.53;;
8254;SDS011;4167;48.162;11.542;2022-10-30T10:50:22;103.77;;;55.20;;
8254;SDS011;4167;48.162;11.542;2022-10-30T10:52:51;122.57;;;56.47;;
8254;SDS011;4167;48.162;11.542;2022-10-30T10:55:20;98.57;;;54.83;;
8254;SDS011;4167;48.162;11.542;2022-10-30T10:57:48;93.50;;;54.33;;
8254;SDS011;4167;48.162;11.542;2022-10-30T11:00:17;116.30;;;56.33;;
8254;SDS011;4167;48.162;11.542;2022-10-30T11:02:48;107.87;;;54.63;;
8254;SDS011;4167;48.162;11.542;2022-10-30T11:05:20;117.63;;;57.33;;
8254;SDS011;4167;48.162;11.542;2022-10-30T11:07:50;138.87;;;59.07;;
8254;SDS011;4167;48.162;11.542;2022-10-30T11:10:19;126.87;;;57.67;;
8254;SDS011;4167;48.162;11.542;2022-10-30T11:12:47;105.00;;;54.90;;
8254;SDS011;4167;48.162;11.542;2022-10-30T11:15:19;122.10;;;57.73;;
8254;SDS011;4167;48.162;11.542;2022-10-30T11:17:51;112.33;;;55.30;;
8254;SDS011;4167;48.162;11.542;2022-10-30T11:20:27;139.90;;;58.03;;
8254;SDS011;4167;48.162;11.542;2022-10-30T11:22:55;129.43;;;57.73;;
8254;SDS011;4167;48.162;11.542;2022-10-30T11:25:22;119.47;;;57.13;;
8254;SDS011;4167;48.162;11.542;2022-10-30T11:27:52;109.23;;;54.97;;
8254;SDS011;4167;48.162;11.542;2022-10-30T11:30:20;128.10;;;57.83;;
8254;SDS011;4167;48.162;11.542;2022-10-30T11:32:48;113.67;;;56.00;;
8254;SDS011;4167;48.162;11.542;2022-10-30T11:35:17;114.23;;;56.37;;
8254;SDS011;4167;48.162;11.542;2022-10-30T11:37:45;108.83;;;55.60;;
8254;SDS011;4167;48.162;11.542;2022-10-30T11:40:16;114.67;;;56.37;;
8254;SDS011;4167;48.162;11.542;2022-10-30T11:42:45;119.07;;;55.83;;
8254;SDS011;4167;48.162;11.542;2022-10-30T11:45:14;111.90;;;55.63;;
8254;SDS011;4167;48.162;11.542;2022-10-30T11:47:41;121.73;;;57.07;;
8254;SDS011;4167;48.162;11.542;2022-10-30T11:50:15;116.40;;;56.80;;
8254;SDS011;4167;48.162;11.542;2022-10-30T11:52:43;114.83;;;56.00;;
8254;SDS011;4167;48.162;11.542;2022-10-30T11:55:13;112.63;;;56.30;;
8254;SDS011;4167;48.162;11.542;2022-10-30T11:57:42;127.40;;;57.47;;
8254;SDS011;4167;48.162;11.542;2022-10-30T12:00:13;131.37;;;59.50;;
8254;SDS011;4167;48.162;11.542;2022-10-30T12:02:42;112.63;;;55.67;;
8254;SDS011;4167;48.162;11.542;2022-10-30T12:08:11;102.63;;;55.17;;
8254;SDS011;4167;48.162;11.542;2022-10-30T12:10:44;118.70;;;56.27;;
8254;SDS011;4167;48.162;11.542;2022-10-30T12:13:12;103.03;;;54.63;;
8254;SDS011;4167;48.162;11.542;2022-10-30T12:15:40;100.63;;;53.90;;
8254;SDS011;4167;48.162;11.542;2022-10-30T12:18:15;105.17;;;55.13;;
8254;SDS011;4167;48.162;11.542;2022-10-30T12:20:46;100.23;;;54.73;;
8254;SDS011;4167;48.162;11.542;2022-10-30T12:23:15;115.33;;;56.03;;
8254;SDS011;4167;48.162;11.542;2022-10-30T12:25:45;115.80;;;56.07;;
8254;SDS011;4167;48.162;11.542;2022-10-30T12:28:12;117.07;;;56.83;;
8254;SDS011;4167;48.162;11.542;2022-10-30T12:30:42;100.20;;;54.87;;
8254;SDS011;4167;48.162;11.542;2022-10-30T12:33:12;127.70;;;57.77;;
8254;SDS011;4167;48.162;11.542;2022-10-30T12:35:41;101.00;;;54.43;;
8254;SDS011;4167;48.162;11.542;2022-10-30T12:38:14;111.23;;;56.07;;
8254;SDS011;4167;48.162;11.542;2022-10-30T12:40:43;107.97;;;55.67;;
8254;SDS011;4167;48.162;11.542;2022-10-30T12:43:16;98.17;;;55.03;;
8254;SDS011;4167;48.162;11.542;2022-10-30T12:45:45;118.97;;;56.53;;
8254;SDS011;4167;48.162;11.542;2022-10-30T12:48:14;125.70;;;56.97;;
8254;SDS011;4167;48.162;11.542;2022-10-30T12:50:44;111.77;;;55.90;;
8254;SDS011;4167;48.162;11.542;2022-10-30T12:53:19;101.80;;;54.63;;
8254;SDS011;4167;48.162;11.542;2022-10-30T12:55:53;143.10;;;59.23;;
8254;SDS011;4167;48.162;11.542;2022-10-30T12:58:23;124.63;;;57.53;;
8254;SDS011;4167;48.162;11.542;2022-10-30T13:00:55;112.57;;;56.63;;
8254;SDS011;4167;48.162;11.542;2022-10-30T13:03:27;105.53;;;55.63;;
8254;SDS011;4167;48.162;11.542;2022-10-30T13:05:58;103.97;;;55.33;;
8254;SDS011;4167;48.162;11.542;2022-10-30T13:08:29;112.70;;;56.67;;
8254;SDS011;4167;48.162;11.542;2022-10-30T13:11:01;113.60;;;56.37;;
8254;SDS011;4167;48.162;11.542;2022-10-30T13:13:31;98.67;;;55.10;;
8254;SDS011;4167;48.162;11.542;2022-10-30T13:16:00;96.23;;;54.57;;
8254;SDS011;4167;48.162;11.542;2022-10-30T13:18:28;98.40;;;54.33;;
8254;SDS011;4167;48.162;11.542;2022-10-30T13:21:04;95.00;;;54.33;;
8254;SDS011;4167;48.162;11.542;2022-10-30T13:23:41;92.80;;;53.60;;
8254;SDS011;4167;48.162;11.542;2022-10-30T13:26:16;122.23;;;56.87;;
8254;SDS011;4167;48.162;11.542;2022-10-30T13:29:00;118.70;;;56.73;;
8254;SDS011;4167;48.162;11.542;2022-10-30T13:31:38;123.53;;;57.07;;
8254;SDS011;4167;48.162;11.542;2022-10-30T13:34:19;121.00;;;57.40;;
8254;SDS011;4167;48.162;11.542;2022-10-30T13:36:52;133.37;;;58.03;;
8254;SDS011;4167;48.162;11.542;2022-10-30T13:39:25;120.53;;;58.10;;
8254;SDS011;4167;48.162;11.542;2022-10-30T13:41:58;118.43;;;56.90;;
8254;SDS011;4167;48.162;11.542;2022-10-30T13:44:34;107.20;;;56.27;;
8254;SDS011;4167;48.162;11.542;2022-10-30T13:47:07;168.97;;;62.17;;
8254;SDS011;4167;48.162;11.542;2022-10-30T13:49:48;121.37;;;57.63;;
8254;SDS011;4167;48.162;11.542;2022-10-30T13:52:34;98.70;;;55.00;;
8254;SDS011;4167;48.162;11.542;2022-10-30T13:55:04;111.20;;;56.07;;
8254;SDS011;4167;48.162;11.542;2022-10-30T13:57:35;98.37;;;55.03;;
8254;SDS011;4167;48.162;11.542;2022-10-30T14:00:11;122.30;;;57.53;;
8254;SDS011;4167;48.162;11.542;2022-10-30T14:02:48;112.27;;;56.47;;
8254;SDS011;4167;48.162;11.542;2022-10-30T14:05:29;132.07;;;58.90;;
8254;SDS011;4167;48.162;11.542;2022-10-30T14:08:02;163.33;;;61.63;;
8254;SDS011;4167;48.162;11.542;2022-10-30T14:10:44;119.47;;;56.47;;
8254;SDS011;4167;48.162;11.542;2022-10-30T14:13:13;98.93;;;55.77;;
8254;SDS011;4167;48.162;11.542;2022-10-30T14:15:42;114.50;;;57.03;;
8254;SDS011;4167;48.162;11.542;2022-10-30T14:18:19;192.87;;;67.60;;
8254;SDS011;4167;48.162;11.542;2022-10-30T14:20:50;102.37;;;55.33;;
8254;SDS011;4167;48.162;11.542;2022-10-30T14:23:19;111.60;;;56.90;;
8254;SDS011;4167;48.162;11.542;2022-10-30T14:28:39;125.90;;;58.43;;
8254;SDS011;4167;48.162;11.542;2022-10-30T14:31:08;99.50;;;55.23;;
8254;SDS011;4167;48.162;11.542;2022-10-30T14:33:41;99.93;;;55.73;;
8254;SDS011;4167;48.162;11.542;2022-10-30T14:36:17;134.37;;;59.47;;
8254;SDS011;4167;48.162;11.542;2022-10-30T14:38:52;109.57;;;56.70;;
8254;SDS011;4167;48.162;11.542;2022-10-30T14:42:03;84.93;;;53.97;;
8254;SDS011;4167;48.162;11.542;2022-10-30T14:44:45;117.73;;;57.03;;
8254;SDS011;4167;48.162;11.542;2022-10-30T14:50:10;94.07;;;54.87;;
8254;SDS011;4167;48.162;11.542;2022-10-30T14:52:42;94.03;;;54.30;;
8254;SDS011;4167;48.162;11.542;2022-10-30T14:55:22;127.80;;;59.33;;